Time;durP1;ratioP1;P1;durP2;ratioP2;P2;SDS_P1;SDS_P2;PMS_P1;PMS_P2;Temp;Humidity;BMP_temperature;BMP_pressure;BME280_temperature;BME280_humidity;BME280_pressure;Samples;Min_cycle;Max_cycle;Signal;HPM_P1;HPM_P2
2023/12/13 00:01:30;;;;;;;202.00;94.03;;;;;;;-143.21;83.91;73204.66;5030436;28;20213;-90
2023/12/13 00:03:58;;;;;;;192.63;91.47;;;;;;;-143.21;84.21;73194.75;5032614;28;20689;-90
2023/12/13 00:06:25;;;;;;;166.33;78.83;;;;;;;-143.21;83.58;73192.75;5030510;28;20241;-91
2023/12/13 00:08:52;;;;;;;157.43;80.40;;;;;;;-143.21;84.02;73184.84;5032940;28;20212;-89
2023/12/13 00:11:19;;;;;;;173.03;81.40;;;;;;;-143.21;84.07;73190.78;5029982;28;20289;-90
2023/12/13 00:13:47;;;;;;;171.93;84.60;;;;;;;-143.21;83.12;73182.84;5030365;28;20229;-83
2023/12/13 00:16:14;;;;;;;168.33;83.43;;;;;;;-143.21;83.28;73194.75;5031741;28;20214;-84
2023/12/13 00:18:46;;;;;;;163.23;78.13;;;;;;;-143.21;83.12;73206.66;5029655;28;20583;-88
2023/12/13 00:21:15;;;;;;;141.30;66.90;;;;;;;-143.21;83.46;73216.56;5031154;28;20233;-87
2023/12/13 00:23:42;;;;;;;144.13;64.37;;;;;;;-143.21;84.09;73254.25;5032474;28;20616;-90
2023/12/13 00:26:14;;;;;;;140.07;69.57;;;;;;;-143.21;83.96;73286.00;5032212;28;20315;-90
2023/12/13 00:28:41;;;;;;;139.50;70.00;;;;;;;-143.21;84.40;73323.69;5030109;28;20198;-91
2023/12/13 00:31:10;;;;;;;134.87;68.10;;;;;;;-143.21;85.54;73309.81;5031670;28;20230;-92
2023/12/13 00:33:37;;;;;;;142.40;69.67;;;;;;;-143.21;86.43;73293.94;5032127;28;20207;-93
2023/12/13 00:36:05;;;;;;;134.40;66.07;;;;;;;-143.21;86.70;73264.19;5031340;28;20200;-91
2023/12/13 00:38:32;;;;;;;133.97;63.53;;;;;;;-143.21;87.01;73248.31;5031335;28;20288;-89
2023/12/13 00:40:59;;;;;;;112.47;55.70;;;;;;;-143.21;86.88;73232.44;5028426;28;20198;-89
2023/12/13 00:43:26;;;;;;;130.47;59.50;;;;;;;-143.21;86.54;73228.47;5029275;28;20263;-88
2023/12/13 00:45:53;;;;;;;132.57;59.80;;;;;;;-143.21;86.30;73248.31;5028747;28;20680;-88
2023/12/13 00:48:21;;;;;;;130.90;62.13;;;;;;;-143.21;86.46;73280.03;5031766;28;20636;-87
2023/12/13 00:50:48;;;;;;;127.37;63.47;;;;;;;-143.21;86.81;73276.06;5029712;28;20577;-89
2023/12/13 00:53:15;;;;;;;125.70;63.50;;;;;;;-143.21;86.95;73262.19;5029523;28;20681;-89
2023/12/13 00:55:42;;;;;;;133.60;63.50;;;;;;;-143.21;87.51;73248.31;5029744;28;20204;-89
2023/12/13 00:58:09;;;;;;;126.10;63.53;;;;;;;-143.21;87.53;73226.50;5030198;28;20201;-87
2023/12/13 01:00:36;;;;;;;136.27;64.77;;;;;;;-143.21;86.90;73212.59;5030849;28;20207;-88
2023/12/13 01:03:03;;;;;;;115.57;58.20;;;;;;;-143.21;86.51;73204.66;5029576;28;20208;-88
2023/12/13 01:05:31;;;;;;;115.93;56.93;;;;;;;-143.21;87.14;73200.69;5033107;28;20610;-89
2023/12/13 01:07:58;;;;;;;112.90;53.43;;;;;;;-143.21;86.88;73188.78;5029865;28;20290;-88
2023/12/13 01:10:25;;;;;;;113.30;56.63;;;;;;;-143.21;86.72;73186.81;5031584;28;20233;-88
2023/12/13 01:12:52;;;;;;;124.47;60.90;;;;;;;-143.21;86.49;73174.91;5028857;28;20782;-89
2023/12/13 01:15:19;;;;;;;132.57;62.17;;;;;;;-143.21;86.58;73161.03;5029255;28;20214;-89
2023/12/13 01:17:46;;;;;;;120.27;57.43;;;;;;;-143.21;86.67;73147.13;5030138;28;20664;-90
2023/12/13 01:20:13;;;;;;;121.53;56.37;;;;;;;-143.21;86.17;73137.22;5031071;28;20200;-90
2023/12/13 01:22:41;;;;;;;120.13;53.97;;;;;;;-143.21;85.75;73129.28;5031148;28;20205;-90
2023/12/13 01:25:09;;;;;;;111.13;55.07;;;;;;;-143.21;85.28;73141.19;5034468;28;20220;-88
2023/12/13 01:27:36;;;;;;;111.13;54.17;;;;;;;-143.21;85.25;73202.69;5029087;28;20578;-88
2023/12/13 01:30:03;;;;;;;113.90;55.97;;;;;;;-143.21;86.63;73220.53;5028823;28;20236;-87
2023/12/13 01:32:30;;;;;;;112.57;54.83;;;;;;;-143.21;87.23;73202.69;5031539;28;20199;-87
2023/12/13 01:34:56;;;;;;;119.30;55.17;;;;;;;-143.21;87.73;73202.69;5029734;28;20203;-87
2023/12/13 01:37:23;;;;;;;115.70;55.30;;;;;;;-143.21;87.49;73192.75;5030005;28;20209;-89
2023/12/13 01:39:56;;;;;;;108.73;53.83;;;;;;;-143.21;87.85;73184.84;5029435;28;20204;-88
2023/12/13 01:42:23;;;;;;;108.90;51.73;;;;;;;-143.21;87.08;73161.03;5033576;28;20770;-87
2023/12/13 01:44:50;;;;;;;114.20;55.97;;;;;;;-143.21;86.38;73157.06;5031542;28;20208;-88
2023/12/13 01:47:17;;;;;;;115.43;55.30;;;;;;;-143.21;86.66;73149.13;5029812;28;20293;-90
2023/12/13 01:49:45;;;;;;;104.83;52.53;;;;;;;-143.21;86.26;73141.19;5029339;28;20252;-90
2023/12/13 01:52:13;;;;;;;109.97;54.03;;;;;;;-143.21;86.42;73121.34;5029616;28;20275;-88
2023/12/13 01:54:40;;;;;;;112.50;55.67;;;;;;;-143.21;85.40;73109.44;5013222;28;20210;-89
2023/12/13 01:57:10;;;;;;;118.07;57.87;;;;;;;-143.21;85.30;73105.47;5028216;28;20213;-89
2023/12/13 01:59:38;;;;;;;112.20;57.10;;;;;;;-143.21;85.41;73103.50;5029996;28;20305;-88
2023/12/13 02:02:06;;;;;;;106.43;54.33;;;;;;;-143.21;85.62;73089.63;5030704;28;20693;-87
2023/12/13 02:04:35;;;;;;;103.53;52.17;;;;;;;-143.21;84.77;73077.72;5032230;28;20202;-89
2023/12/13 02:07:03;;;;;;;101.67;51.77;;;;;;;-143.21;84.57;73067.78;5030522;28;20255;-89
2023/12/13 02:09:30;;;;;;;100.40;52.83;;;;;;;-143.21;83.84;73083.66;5029328;28;20225;-89
2023/12/13 02:11:57;;;;;;;103.63;50.90;;;;;;;-143.21;84.20;73133.25;5029242;28;20700;-89
2023/12/13 02:14:26;;;;;;;117.33;54.67;;;;;;;-143.21;86.50;73168.97;5009842;28;20673;-89
2023/12/13 02:16:54;;;;;;;114.57;54.37;;;;;;;-143.21;87.19;73137.22;5011877;28;20230;-89
2023/12/13 02:19:21;;;;;;;115.73;55.23;;;;;;;-143.21;87.78;73119.38;5012040;28;20225;-89
2023/12/13 02:21:47;;;;;;;116.47;56.60;;;;;;;-143.21;87.86;73113.41;5012947;28;20204;-89
2023/12/13 02:24:18;;;;;;;114.97;56.73;;;;;;;-143.21;87.51;73115.41;5011426;28;20274;-88
2023/12/13 02:26:45;;;;;;;109.80;54.73;;;;;;;-143.21;87.65;73111.44;5011297;28;20201;-88
2023/12/13 02:29:13;;;;;;;110.37;56.03;;;;;;;-143.21;87.14;73097.56;5011084;28;20641;-88
2023/12/13 02:31:41;;;;;;;116.50;57.10;;;;;;;-143.21;86.27;73089.63;5009671;28;20237;-89
2023/12/13 02:34:08;;;;;;;113.03;55.53;;;;;;;-143.21;86.77;73087.63;5008070;28;20666;-89
2023/12/13 02:36:35;;;;;;;115.60;54.93;;;;;;;-143.21;86.36;73071.75;5010402;28;20217;-89
2023/12/13 02:39:04;;;;;;;117.30;58.63;;;;;;;-143.21;86.40;73044.00;5012594;28;20207;-89
2023/12/13 02:41:33;;;;;;;127.63;60.40;;;;;;;-143.21;86.00;73036.06;5010034;28;20265;-89
2023/12/13 02:44:00;;;;;;;110.13;57.37;;;;;;;-143.21;85.83;73022.19;5008972;28;20629;-88
2023/12/13 02:46:27;;;;;;;107.83;56.00;;;;;;;-143.21;85.49;73022.19;5011346;28;20272;-91
2023/12/13 02:48:54;;;;;;;100.53;51.30;;;;;;;-143.21;85.37;73032.09;5012618;28;20658;-90
2023/12/13 02:51:21;;;;;;;103.80;53.30;;;;;;;-143.21;84.71;73030.09;5011146;28;20223;-90
2023/12/13 02:53:48;;;;;;;107.03;55.03;;;;;;;-143.21;84.88;73030.09;5011694;28;20207;-90
2023/12/13 02:56:14;;;;;;;113.33;55.97;;;;;;;-143.21;84.84;73069.78;5015487;28;20210;-89
2023/12/13 02:58:43;;;;;;;118.37;56.73;;;;;;;-143.21;84.56;73107.47;5015967;28;20223;-89
2023/12/13 03:01:10;;;;;;;113.97;56.83;;;;;;;-143.21;86.51;73139.22;5013254;28;20725;-89
2023/12/13 03:03:36;;;;;;;114.87;56.27;;;;;;;-143.21;87.32;73133.25;5014899;28;20217;-89
2023/12/13 03:06:03;;;;;;;115.87;55.73;;;;;;;-143.21;87.72;73117.38;5012033;28;20204;-89
2023/12/13 03:08:30;;;;;;;102.70;50.63;;;;;;;-143.21;87.90;73089.63;5010649;28;20589;-89
2023/12/13 03:10:57;;;;;;;85.57;45.87;;;;;;;-143.21;87.62;73077.72;5011036;28;20735;-89
2023/12/13 03:13:25;;;;;;;79.37;39.93;;;;;;;-143.21;87.43;73061.84;5021537;28;20245;-90
2023/12/13 03:15:54;;;;;;;74.03;38.73;;;;;;;-143.21;87.29;73057.88;5029024;28;20202;-91
2023/12/13 03:18:22;;;;;;;66.60;36.13;;;;;;;-143.21;87.00;73055.91;5032703;28;20302;-90
2023/12/13 03:20:49;;;;;;;67.20;36.20;;;;;;;-143.21;86.26;73057.88;5031972;28;20664;-90
2023/12/13 03:23:16;;;;;;;73.17;37.97;;;;;;;-143.21;86.52;73063.84;5032494;28;20227;-90
2023/12/13 03:25:43;;;;;;;70.73;36.63;;;;;;;-143.21;85.69;73061.84;5034974;28;20208;-88
2023/12/13 03:28:09;;;;;;;64.57;35.27;;;;;;;-143.21;85.35;73057.88;5029879;28;20205;-88
2023/12/13 03:30:36;;;;;;;66.03;35.10;;;;;;;-143.21;85.38;73059.88;5027624;28;20470;-86
2023/12/13 03:33:26;;;;;;;67.67;36.77;;;;;;;-143.21;84.98;73049.94;5044598;28;20216;-87
2023/12/13 03:36:00;;;;;;;82.43;41.83;;;;;;;-143.21;84.49;73042.00;5043748;28;20202;-86
2023/12/13 03:38:27;;;;;;;81.80;41.70;;;;;;;-143.21;83.78;73053.91;5039513;28;20720;-87
2023/12/13 03:40:53;;;;;;;88.33;43.17;;;;;;;-143.21;83.83;73059.88;5027198;28;20209;-88
2023/12/13 03:43:20;;;;;;;91.43;43.67;;;;;;;-143.21;83.99;73099.53;5027798;28;20210;-87
2023/12/13 03:45:47;;;;;;;80.97;41.37;;;;;;;-143.21;84.66;73141.19;5028315;28;20216;-87
2023/12/13 03:48:14;;;;;;;84.77;41.83;;;;;;;-143.21;85.91;73157.06;5031607;28;20296;-90
2023/12/13 03:50:42;;;;;;;83.50;41.83;;;;;;;-143.21;87.00;73147.13;5036339;28;20940;-89
2023/12/13 03:53:09;;;;;;;73.43;39.90;;;;;;;-143.21;86.94;73145.16;5032001;28;20215;-89
2023/12/13 03:55:36;;;;;;;66.17;36.87;;;;;;;-143.21;87.46;73123.34;5032310;28;20204;-90
2023/12/13 03:58:03;;;;;;;69.73;37.50;;;;;;;-143.21;87.59;73113.41;5032156;28;20258;-90
2023/12/13 04:00:29;;;;;;;75.47;38.97;;;;;;;-143.21;87.50;73097.56;5031758;28;20197;-89
2023/12/13 04:02:56;;;;;;;71.20;37.33;;;;;;;-143.21;86.91;73085.66;5032117;28;20213;-90
2023/12/13 04:05:23;;;;;;;70.83;36.87;;;;;;;-143.21;86.87;73077.72;5033719;28;20213;-90
2023/12/13 04:07:52;;;;;;;69.37;38.07;;;;;;;-143.21;86.59;73065.81;5034503;28;20206;-90
2023/12/13 04:10:19;;;;;;;73.00;38.13;;;;;;;-143.21;86.64;73059.88;5034521;28;20212;-90
2023/12/13 04:12:46;;;;;;;72.43;38.20;;;;;;;-143.21;86.78;73055.91;5044988;28;20239;-87
2023/12/13 04:15:13;;;;;;;68.83;38.70;;;;;;;-143.21;86.20;73038.03;5039339;28;20211;-89
2023/12/13 04:17:40;;;;;;;72.67;39.63;;;;;;;-143.21;85.67;73038.03;5032569;28;20228;-90
2023/12/13 04:20:08;;;;;;;69.00;37.13;;;;;;;-143.21;85.07;73024.16;5030922;28;20205;-88
2023/12/13 04:22:34;;;;;;;72.67;38.07;;;;;;;-143.21;85.12;73018.22;5031164;28;20216;-87
2023/12/13 04:25:03;;;;;;;67.03;37.07;;;;;;;-143.21;85.41;73016.22;5022762;28;20206;-87
2023/12/13 04:27:29;;;;;;;73.60;38.03;;;;;;;-143.21;85.53;73008.28;5024203;28;20202;-87
2023/12/13 04:29:56;;;;;;;73.63;37.93;;;;;;;-143.21;86.48;73002.34;5024818;28;20384;-88
2023/12/13 04:32:23;;;;;;;74.50;39.27;;;;;;;-143.21;85.33;73049.94;5031914;28;20223;-86
2023/12/13 04:34:50;;;;;;;74.20;40.03;;;;;;;-143.21;86.06;73071.75;5026511;28;20210;-86
2023/12/13 04:37:17;;;;;;;75.13;40.07;;;;;;;-143.21;87.01;73069.78;5023984;28;20210;-87
2023/12/13 04:39:44;;;;;;;80.30;40.10;;;;;;;-143.21;87.33;73057.88;5032978;28;20216;-87
2023/12/13 04:42:12;;;;;;;79.20;40.50;;;;;;;-143.21;87.10;73051.94;5019123;28;20802;-88
2023/12/13 04:44:39;;;;;;;90.33;39.80;;;;;;;-143.21;87.07;73040.03;5035237;28;20215;-87
2023/12/13 04:47:06;;;;;;;77.67;39.13;;;;;;;-143.21;87.22;73040.03;5039550;28;20209;-90
2023/12/13 04:49:33;;;;;;;73.43;38.20;;;;;;;-143.21;87.24;73032.09;5042005;28;20710;-90
2023/12/13 04:52:00;;;;;;;82.17;40.03;;;;;;;-143.21;87.58;73016.22;5034421;28;20240;-77
2023/12/13 04:54:27;;;;;;;75.90;39.57;;;;;;;-143.21;87.30;73004.31;5022152;28;20213;-77
2023/12/13 04:56:54;;;;;;;75.70;38.87;;;;;;;-143.21;86.47;73002.34;5019680;28;20205;-78
2023/12/13 04:59:22;;;;;;;74.27;38.43;;;;;;;-143.21;86.76;72996.38;5023623;28;20206;-78
2023/12/13 05:01:49;;;;;;;71.67;37.47;;;;;;;-143.21;85.92;72988.47;5023336;28;20202;-78
2023/12/13 05:04:16;;;;;;;77.00;39.80;;;;;;;-143.21;85.70;72994.41;5020014;28;20206;-78
2023/12/13 05:06:43;;;;;;;88.70;47.37;;;;;;;-143.21;85.34;72978.53;5003714;28;20214;-76
2023/12/13 05:09:10;;;;;;;97.20;49.53;;;;;;;-143.21;85.51;72968.63;5014189;28;20215;-78
2023/12/13 05:11:37;;;;;;;90.97;49.57;;;;;;;-143.21;85.62;72972.59;5020592;28;20249;-78
2023/12/13 05:14:04;;;;;;;97.17;51.70;;;;;;;-143.21;85.04;72972.59;5023405;28;20239;-76
2023/12/13 05:16:32;;;;;;;102.50;52.80;;;;;;;-143.21;85.59;72982.50;5022626;28;20215;-76
2023/12/13 05:18:59;;;;;;;115.07;61.63;;;;;;;-143.21;85.64;73014.25;5024615;28;20260;-76
2023/12/13 05:21:26;;;;;;;116.93;59.57;;;;;;;-143.21;85.27;73038.03;5024295;28;20268;-76
2023/12/13 05:23:52;;;;;;;107.37;52.83;;;;;;;-143.21;86.14;73101.53;5029091;28;20201;-76
2023/12/13 05:26:19;;;;;;;103.47;53.53;;;;;;;-143.21;86.83;73085.66;5029180;28;20203;-77
2023/12/13 05:28:46;;;;;;;112.20;54.70;;;;;;;-143.21;87.89;73063.84;5024939;28;20202;-76
2023/12/13 05:31:19;;;;;;;102.97;51.40;;;;;;;-143.21;88.04;73059.88;5023297;28;20714;-78
2023/12/13 05:33:48;;;;;;;102.20;57.37;;;;;;;-143.21;88.03;73051.94;5023603;28;20201;-78
2023/12/13 05:36:15;;;;;;;98.07;53.27;;;;;;;-143.21;87.87;73024.16;5024480;28;20677;-76
2023/12/13 05:38:43;;;;;;;88.43;48.70;;;;;;;-143.21;87.86;73012.25;5022800;28;22186;-75
2023/12/13 05:41:10;;;;;;;88.10;47.63;;;;;;;-143.21;87.07;73014.25;5024366;28;20240;-76
2023/12/13 05:43:37;;;;;;;74.93;40.93;;;;;;;-143.21;86.77;73022.19;5020981;28;20672;-77
2023/12/13 05:46:04;;;;;;;90.67;48.93;;;;;;;-143.21;86.19;73042.00;5027168;28;20709;-77
2023/12/13 05:48:31;;;;;;;120.50;58.83;;;;;;;-143.21;86.20;73028.13;5023710;28;20196;-76
2023/12/13 05:51:00;;;;;;;115.37;57.13;;;;;;;-143.21;86.15;73022.19;5021698;28;20732;-82
2023/12/13 05:53:27;;;;;;;129.80;63.90;;;;;;;-143.21;86.22;73022.19;5027055;28;20204;-74
2023/12/13 05:55:54;;;;;;;123.77;60.30;;;;;;;-143.21;86.35;73022.19;5024439;28;20316;-76
2023/12/13 05:58:22;;;;;;;102.27;52.50;;;;;;;-143.21;86.55;73020.19;5026138;28;20210;-75
2023/12/13 06:00:49;;;;;;;86.50;44.20;;;;;;;-143.21;86.01;73008.28;5027258;28;20238;-78
2023/12/13 06:03:15;;;;;;;92.13;45.57;;;;;;;-143.21;86.04;73002.34;5029454;28;20201;-77
2023/12/13 06:05:42;;;;;;;96.00;49.17;;;;;;;-143.21;86.56;73006.31;5024204;28;20206;-77
2023/12/13 06:08:11;;;;;;;99.93;50.53;;;;;;;-143.21;86.75;73026.16;5024900;28;20760;-77
2023/12/13 06:10:40;;;;;;;90.87;48.97;;;;;;;-143.21;87.34;73045.97;5022970;28;20208;-79
2023/12/13 06:13:07;;;;;;;95.17;48.70;;;;;;;-143.21;87.94;73034.06;5028026;28;20321;-77
2023/12/13 06:15:34;;;;;;;96.00;49.13;;;;;;;-143.21;88.47;73032.09;5029154;28;20204;-78
2023/12/13 06:18:01;;;;;;;97.07;48.97;;;;;;;-143.21;89.04;73020.19;5030409;28;20708;-78
2023/12/13 06:20:28;;;;;;;96.37;47.80;;;;;;;-143.21;89.20;72998.38;5030354;28;20588;-79
2023/12/13 06:22:55;;;;;;;84.60;46.77;;;;;;;-143.21;89.12;72984.50;5029261;28;20205;-78
2023/12/13 06:25:23;;;;;;;92.03;47.97;;;;;;;-143.21;87.45;72968.63;5029251;28;20234;-77
2023/12/13 06:27:50;;;;;;;91.57;48.80;;;;;;;-143.21;87.46;72956.72;5029520;28;20221;-77
2023/12/13 06:30:17;;;;;;;125.53;60.20;;;;;;;-143.21;86.77;72926.97;5028591;28;20237;-77
2023/12/13 06:32:43;;;;;;;113.20;56.23;;;;;;;-143.21;86.96;72926.97;5028521;28;20731;-77
2023/12/13 06:35:12;;;;;;;120.93;54.07;;;;;;;-143.21;87.17;72919.03;5028405;28;20220;-77
2023/12/13 06:37:39;;;;;;;97.63;50.43;;;;;;;-143.21;87.56;72903.16;5028338;28;20306;-76
2023/12/13 06:40:07;;;;;;;105.57;49.93;;;;;;;-143.21;87.35;72901.19;5029878;28;20229;-76
2023/12/13 06:42:36;;;;;;;88.53;46.97;;;;;;;-143.21;87.35;72883.31;5029378;28;20202;-76
2023/12/13 06:45:03;;;;;;;118.43;62.47;;;;;;;-143.21;86.18;72869.44;5028748;28;20638;-77
2023/12/13 06:47:29;;;;;;;119.80;63.27;;;;;;;-143.21;86.35;72871.44;5028102;28;20209;-77
2023/12/13 06:49:56;;;;;;;123.17;64.47;;;;;;;-143.21;85.58;72867.47;5028247;28;20224;-76
2023/12/13 06:52:23;;;;;;;124.73;67.37;;;;;;;-143.21;85.36;72861.50;5030416;28;20233;-76
2023/12/13 06:54:50;;;;;;;124.33;68.90;;;;;;;-143.21;84.63;72845.63;5028840;28;20210;-77
2023/12/13 06:57:17;;;;;;;144.27;83.27;;;;;;;-143.21;84.29;72845.63;5025842;28;20206;-78
2023/12/13 06:59:45;;;;;;;147.73;76.03;;;;;;;-143.21;84.78;72851.59;5028294;28;20629;-79
2023/12/13 07:02:12;;;;;;;148.23;77.47;;;;;;;-143.21;84.24;72841.69;5029802;28;20198;-77
2023/12/13 07:04:42;;;;;;;128.73;68.00;;;;;;;-143.21;84.30;72839.69;5028413;28;20863;-78
2023/12/13 07:07:14;;;;;;;126.43;62.27;;;;;;;-143.21;83.25;72843.66;5028319;28;20843;-78
2023/12/13 07:09:41;;;;;;;116.93;57.60;;;;;;;-143.21;83.44;72839.69;5028352;28;20213;-78
2023/12/13 07:12:08;;;;;;;109.67;53.30;;;;;;;-143.21;83.20;72833.75;5027864;28;20697;-78
2023/12/13 07:14:35;;;;;;;97.97;51.60;;;;;;;-143.21;83.45;72827.78;5030625;28;20203;-78
2023/12/13 07:17:03;;;;;;;103.70;53.90;;;;;;;-143.21;83.69;72829.78;5027693;28;20206;-77
2023/12/13 07:19:30;;;;;;;98.93;53.10;;;;;;;-143.21;83.41;72819.84;5027515;28;20233;-78
2023/12/13 07:21:58;;;;;;;102.90;53.30;;;;;;;-143.21;82.38;72804.00;5014911;28;20229;-77
2023/12/13 07:24:25;;;;;;;95.40;49.23;;;;;;;-143.21;82.54;72794.06;5028474;28;20286;-77
2023/12/13 07:26:52;;;;;;;89.33;49.10;;;;;;;-143.21;82.84;72794.06;5028559;28;20265;-79
2023/12/13 07:29:19;;;;;;;95.97;48.97;;;;;;;-143.21;83.10;72798.03;5025006;28;20206;-78
2023/12/13 07:31:46;;;;;;;90.50;47.90;;;;;;;-143.21;83.13;72784.16;5027940;28;20249;-76
2023/12/13 07:34:14;;;;;;;87.83;48.00;;;;;;;-143.21;83.17;72776.22;5026595;28;20217;-77
2023/12/13 07:36:45;;;;;;;94.60;50.17;;;;;;;-143.21;81.86;72752.41;5030299;28;20669;-77
2023/12/13 07:39:12;;;;;;;88.37;49.10;;;;;;;-143.21;81.79;72746.47;5027356;28;20235;-76
2023/12/13 07:41:39;;;;;;;92.63;48.57;;;;;;;-143.21;81.58;72746.47;5027265;28;20298;-76
2023/12/13 07:44:06;;;;;;;92.03;46.53;;;;;;;-143.21;80.92;72740.53;5027506;28;20285;-76
2023/12/13 07:46:33;;;;;;;86.30;47.50;;;;;;;-143.21;80.94;72716.72;5029420;28;20654;-76
2023/12/13 07:49:03;;;;;;;84.57;47.37;;;;;;;-143.21;80.64;72718.69;5028381;28;20210;-77
2023/12/13 07:51:32;;;;;;;90.30;47.23;;;;;;;-143.21;80.42;72718.69;5027374;28;20713;-77
2023/12/13 07:54:00;;;;;;;84.33;41.93;;;;;;;-143.21;80.69;72710.78;5026918;28;20202;-77
2023/12/13 07:56:28;;;;;;;78.43;41.07;;;;;;;-143.21;79.93;72712.75;5026843;28;20213;-77
2023/12/13 07:58:55;;;;;;;66.57;37.57;;;;;;;-143.21;80.12;72708.78;5029795;28;20198;-77
2023/12/13 08:01:22;;;;;;;59.77;33.07;;;;;;;-143.21;79.44;72726.63;5027276;28;20659;-76
2023/12/13 08:03:49;;;;;;;56.30;32.07;;;;;;;-143.21;79.93;72712.75;5027627;28;20325;-76
2023/12/13 08:06:18;;;;;;;55.33;29.67;;;;;;;-143.21;79.76;72696.88;5027231;28;20210;-76
2023/12/13 08:08:47;;;;;;;49.17;28.13;;;;;;;-143.21;79.37;72700.84;5028427;28;20230;-76
2023/12/13 08:11:15;;;;;;;48.30;27.37;;;;;;;-143.21;78.98;72694.91;5027654;28;20296;-76
2023/12/13 08:13:42;;;;;;;45.27;23.43;;;;;;;-143.21;78.27;72679.03;5026871;28;20242;-76
2023/12/13 08:16:09;;;;;;;34.20;20.40;;;;;;;-143.21;78.21;72673.09;5026824;28;20666;-76
2023/12/13 08:18:36;;;;;;;39.07;19.83;;;;;;;-143.21;78.36;72669.13;5026858;28;20238;-76
2023/12/13 08:21:06;;;;;;;34.57;18.57;;;;;;;-143.21;77.64;72655.25;5028999;28;20587;-77
2023/12/13 08:23:33;;;;;;;34.27;19.10;;;;;;;-143.21;77.68;72653.25;5026817;28;20211;-77
2023/12/13 08:26:01;;;;;;;35.83;19.73;;;;;;;-143.21;77.14;72647.31;5025308;28;20597;-78
2023/12/13 08:28:28;;;;;;;36.37;21.47;;;;;;;-143.21;77.24;72657.22;5027965;28;20210;-80
2023/12/13 08:30:54;;;;;;;43.80;22.10;;;;;;;-143.21;77.08;72643.34;5045765;28;20203;-84
2023/12/13 08:33:21;;;;;;;36.40;22.23;;;;;;;-143.21;77.02;72643.34;5039650;28;20238;-85
2023/12/13 08:35:48;;;;;;;37.50;23.03;;;;;;;-143.21;76.71;72643.34;5036253;28;20728;-81
2023/12/13 08:38:15;;;;;;;42.97;24.90;;;;;;;-143.21;76.35;72637.38;5031396;28;20211;-82
2023/12/13 08:40:42;;;;;;;43.57;25.43;;;;;;;-143.21;76.88;72655.25;5031790;28;20961;-81
2023/12/13 08:43:10;;;;;;;43.03;25.20;;;;;;;-143.21;77.16;72690.94;5037197;28;20206;-82
2023/12/13 08:45:37;;;;;;;43.83;25.53;;;;;;;-143.21;77.25;72720.69;5033077;28;20260;-83
2023/12/13 08:48:04;;;;;;;44.17;24.07;;;;;;;-143.21;78.98;72722.66;5034204;28;20199;-81
2023/12/13 08:50:31;;;;;;;41.17;24.57;;;;;;;-143.21;79.13;72704.81;5029335;28;20697;-81
2023/12/13 08:52:58;;;;;;;46.80;25.13;;;;;;;-143.21;77.93;72692.91;5029843;28;20323;-81
2023/12/13 08:55:29;;;;;;;39.53;23.03;;;;;;;-143.21;78.21;72688.94;5027510;28;20206;-80
2023/12/13 08:57:56;;;;;;;43.77;23.23;;;;;;;-143.21;77.11;72671.09;5028026;28;20199;-81
2023/12/13 09:00:25;;;;;;;36.90;21.33;;;;;;;-143.21;76.90;72694.91;5029018;28;20195;-80
2023/12/13 09:02:52;;;;;;;40.20;21.60;;;;;;;-143.21;77.01;72679.03;5026149;28;20199;-81
2023/12/13 09:05:19;;;;;;;42.00;22.33;;;;;;;-143.21;76.38;72659.19;5030770;28;20195;-83
2023/12/13 09:07:46;;;;;;;40.80;22.23;;;;;;;-143.21;76.38;72637.38;5029575;28;20662;-81
2023/12/13 09:10:12;;;;;;;40.77;22.13;;;;;;;-143.21;75.41;72617.56;5028760;28;20206;-81
2023/12/13 09:12:39;;;;;;;43.97;22.10;;;;;;;-143.21;75.43;72611.59;5030953;28;20335;-81
2023/12/13 09:15:07;;;;;;;39.20;21.80;;;;;;;-143.21;74.99;72583.84;5043125;28;20215;-80
2023/12/13 09:17:35;;;;;;;41.53;23.03;;;;;;;-143.21;74.98;72571.94;5037638;28;20195;-80
2023/12/13 09:20:02;;;;;;;51.23;23.73;;;;;;;-143.21;74.63;72534.25;5034248;28;20225;-81
2023/12/13 09:22:30;;;;;;;42.40;23.33;;;;;;;-143.21;74.21;72528.31;5035140;28;20199;-80
2023/12/13 09:24:57;;;;;;;44.60;24.00;;;;;;;-143.21;73.88;72508.47;5034667;28;20276;-80
2023/12/13 09:27:24;;;;;;;50.23;24.97;;;;;;;-143.21;73.98;72502.53;5026524;28;20202;-81
2023/12/13 09:29:51;;;;;;;52.23;29.53;;;;;;;-143.21;74.36;72530.28;5031178;28;20265;-84
2023/12/13 09:32:18;;;;;;;58.93;28.13;;;;;;;-143.21;75.02;72502.53;5038188;28;20223;-86
2023/12/13 09:34:46;;;;;;;51.17;27.40;;;;;;;-143.21;74.66;72478.72;5040793;28;20961;-86
2023/12/13 09:37:13;;;;;;;56.03;30.33;;;;;;;-143.21;73.81;72458.88;5041665;28;20229;-85
2023/12/13 09:39:45;;;;;;;65.53;29.93;;;;;;;-143.21;73.88;72448.97;5044003;28;20210;-85
2023/12/13 09:42:13;;;;;;;54.23;27.97;;;;;;;-143.21;72.96;72425.19;5028370;28;21131;-85
2023/12/13 09:44:42;;;;;;;48.77;27.33;;;;;;;-143.21;72.36;72393.44;5042042;28;20207;-89
2023/12/13 09:47:10;;;;;;;47.07;27.67;;;;;;;-143.21;71.99;72373.63;5040503;28;20293;-89
2023/12/13 09:49:38;;;;;;;47.67;26.17;;;;;;;-143.21;70.65;72351.78;5044730;28;20217;-81
2023/12/13 09:52:08;;;;;;;53.53;26.87;;;;;;;-143.21;70.26;72328.00;5039376;28;20661;-81
2023/12/13 09:54:37;;;;;;;47.23;25.87;;;;;;;-143.21;69.99;72290.31;5035180;28;20237;-81
2023/12/13 09:57:05;;;;;;;47.57;25.50;;;;;;;-143.21;68.27;72240.75;5034845;28;20217;-80
2023/12/13 09:59:32;;;;;;;46.60;21.83;;;;;;;-143.21;66.24;72209.00;5043782;28;20552;-80
2023/12/13 10:01:58;;;;;;;37.30;20.60;;;;;;;-143.21;65.71;72167.38;5036962;28;20225;-81
2023/12/13 10:04:27;;;;;;;46.60;21.90;;;;;;;-143.21;65.11;72161.41;5034648;28;20206;-81
2023/12/13 10:06:54;;;;;;;40.17;21.10;;;;;;;-143.21;64.77;72147.53;5036537;28;20294;-80
2023/12/13 10:09:26;;;;;;;42.97;20.23;;;;;;;-143.21;65.02;72143.56;5033629;28;20210;-80
2023/12/13 10:11:55;;;;;;;38.13;20.93;;;;;;;-143.21;64.88;72155.47;5037169;28;20202;-83
2023/12/13 10:14:22;;;;;;;45.90;20.83;;;;;;;-143.21;65.30;72185.22;5037188;28;20241;-83
2023/12/13 10:16:49;;;;;;;38.33;21.97;;;;;;;-143.21;65.88;72211.00;5038439;28;20195;-83
2023/12/13 10:19:16;;;;;;;43.07;20.77;;;;;;;-143.21;66.29;72214.97;5034133;28;20732;-80
2023/12/13 10:21:46;;;;;;;37.03;21.03;;;;;;;-143.21;66.54;72212.97;5032967;28;20218;-80
2023/12/13 10:24:13;;;;;;;38.80;22.33;;;;;;;-143.21;68.74;72214.97;5036117;28;20217;-81
2023/12/13 10:26:41;;;;;;;41.43;21.83;;;;;;;-143.21;68.89;72216.94;5031344;28;20203;-81
2023/12/13 10:29:08;;;;;;;38.93;22.40;;;;;;;-143.21;67.80;72197.13;5026581;28;20207;-82
2023/12/13 10:31:36;;;;;;;51.70;24.60;;;;;;;-143.21;67.56;72185.22;5020823;28;20253;-81
2023/12/13 10:34:02;;;;;;;39.37;23.17;;;;;;;-143.21;67.92;72209.00;5033703;28;20739;-81
2023/12/13 10:36:30;;;;;;;42.60;23.73;;;;;;;-143.21;67.49;72214.97;5027026;28;20214;-81
2023/12/13 10:38:57;;;;;;;44.67;22.80;;;;;;;-143.21;68.13;72214.97;5036742;28;20375;-81
2023/12/13 10:41:26;;;;;;;40.57;24.30;;;;;;;-143.21;67.66;72218.94;5045633;28;20197;-82
2023/12/13 10:43:56;;;;;;;45.67;23.57;;;;;;;-143.21;67.87;72224.88;5015106;28;20254;-81
2023/12/13 10:46:26;;;;;;;46.63;24.57;;;;;;;-143.21;68.19;72224.88;5030148;28;20213;-82
2023/12/13 10:48:55;;;;;;;47.27;24.40;;;;;;;-143.21;68.30;72236.78;5050835;28;20588;-84
2023/12/13 10:51:23;;;;;;;44.23;23.23;;;;;;;-143.21;68.92;72224.88;5054384;28;20207;-84
2023/12/13 10:53:50;;;;;;;44.27;23.80;;;;;;;-143.21;68.26;72226.84;5054098;28;20221;-84
2023/12/13 10:56:17;;;;;;;38.20;22.13;;;;;;;-143.21;68.84;72230.81;5054573;28;20198;-84
2023/12/13 10:58:45;;;;;;;36.83;21.53;;;;;;;-143.21;68.54;72230.81;5054537;28;20202;-84
2023/12/13 11:01:15;;;;;;;36.83;20.30;;;;;;;-143.21;68.37;72224.88;5042775;28;20211;-84